Coastal Carolina Regional Airport New Bern US
ICAO: KEWN
IATA: EWN
Category: Medium
Scheduled Services: Yes

Elevation: 18 ft
TransAlt. 18000 ft.

Airport Communications:
CHERRY POINT APP/DEP:119.35
ASOS:118.525
CLNC DEL:120.525
CTAF:124.25
GND:121.7
RALEIGH RDO:122.2
NEW BERN TWR:124.25

KEWN Zoom In..

If you have problems with the map follow the link
https://www.worldairports.se/pages/airport.php?
ICAO=KEWN

Runways:

(A) RW 04 length 6453 ft width 150 ft
ILS 110.50 / hdg 39

(B) RW 14 length 4000 ft width 150 ft
---- / hdg 136

(C) RW 22 length 6453 ft width 150 ft
---- / hdg 219

(D) RW 32 length 4000 ft width 150 ft
---- / hdg 316

Location; KEWN
Day. 18 / Time. 10.54 Zulu
* Altimeter: 30.61
* Temperature: 02° c. 35.6°f.
* Wind from: 010° Speed 04 kn.
Dewpoint: -03° c.
Visibility: 10 Statute Miles.
Clouds: Clear (automated report).

KEWN 181054Z 01004KT 10SM CLR 02/M03 A3061 RMK AO2 SLP366 T00221033


Wind From 010°
Speed 04 kn.

 
 
jpsmedia worldairports.se 2020   terms of use